Flight Track Log - Related Links

Times and Time Zones

All times are in EDT time to prevent confusion due to time zone crossing. See the SWA471 flight status page for this flight to view local times or setup timezone preferences in your user account.

Time Position Orientation Groundspeed Altitude Reporting Facility
EDT Latitude Longitude Course Direction KTS MPH feet Rate Location/Type
Thu 04:19:10 PM 42.9167 -71.4167 266° West 159 183 1,100  Level KA90
Thu 04:20:26 PM 42.9133 -71.4875 266° West 262 302 4,500 2,426 Climbing Boston Center
Thu 04:21:26 PM 42.9606 -71.4189 47° Northeast 270 311 6,600 2,975 Climbing Boston Center
Thu 04:22:25 PM 42.9969 -71.3075 66° East 312 359 10,400 2,571 Climbing Boston Center
Thu 04:23:25 PM 43.0314 -71.2017 66° East 330 380 11,700 2,033 Climbing Boston Center
Thu 04:24:26 PM 43.0733 -71.0503 69° East 366 421 14,500 2,380 Climbing Boston Center
Thu 04:25:26 PM 43.0344 -70.9317 114° Southeast 365 420 16,500 2,033 Climbing Boston Center
Thu 04:26:27 PM 42.9236 -70.9117 172° South 301 346 18,600 2,083 Climbing Boston Center
Thu 04:27:27 PM 42.8283 -70.9594 200° South 327 376 20,700 1,881 Climbing Boston Center
Thu 04:28:25 PM 42.7269 -71.0100 200° South 362 417 22,300 1,627 Climbing Boston Center
Thu 04:29:25 PM 42.6214 -71.0603 199° South 387 445 23,900 1,388 Climbing Boston Center
Thu 04:30:26 PM 42.5114 -71.1136 200° South 410 472 25,100 1,537 Climbing Boston Center
Thu 04:31:26 PM 42.4164 -71.1914 211° Southwest 403 464 27,000 1,835 Climbing Boston Center
Thu 04:32:27 PM 42.3719 -71.3272 246° West 378 435 28,800 1,537 Climbing Boston Center
Thu 04:33:27 PM 42.3294 -71.4628 247° West 385 443 30,100 1,333 Climbing Boston Center
Thu 04:34:24 PM 42.2828 -71.5983 245° Southwest 390 449 31,400 1,210 Climbing Boston Center
Thu 04:35:26 PM 42.2397 -71.7333 247° West 396 456 32,500 200 Climbing Boston Center
Thu 04:36:24 PM 42.1969 -71.8711 247° West 396 456 31,800 -807 Descending Boston Center
Thu 04:37:25 PM 42.1392 -72.0006 239° Southwest 396 456 30,900 -893 Descending Boston Center
Thu 04:38:25 PM 42.0728 -72.1214 234° Southwest 401 461 30,000 -446 Descending Boston Center
Thu 04:39:26 PM 42.0083 -72.2444 235° Southwest 406 467 30,000 -446 Level Boston Center
Thu 04:40:26 PM 41.9419 -72.3675 234° Southwest 406 467 29,100 -950 Descending Boston Center
Thu 04:41:26 PM 41.8856 -72.4764 235° Southwest 406 467 28,100 -555 Descending Boston Center
Thu 04:42:25 PM 41.8208 -72.5961 234° Southwest 406 467 28,000 -50 Descending Boston Center
Thu 04:43:26 PM 41.7539 -72.7183 234° Southwest 406 467 28,000  Level Boston Center
Thu 04:44:27 PM 41.6847 -72.8431 233° Southwest 406 467 28,000  Level Boston Center
Thu 04:45:25 PM 41.6175 -72.9706 235° Southwest 411 473 28,000  Level Boston Center
Thu 04:46:26 PM 41.5481 -73.0975 234° Southwest 428 493 28,000  Level Boston Center
Thu 04:47:39 PM 41.4722 -73.2381 234° Southwest 428 493 28,000  Level Boston Center
Thu 04:48:36 PM 41.3897 -73.3919 234° Southwest 433 498 28,000  Level Boston Center
Thu 04:49:37 PM 41.3178 -73.5181 233° Southwest 433 498 28,000  Level Boston Center
Thu 04:51:46 PM 41.1606 -73.7861 232° Southwest 438 504 28,000  Level New York Center
Thu 04:52:46 PM 41.0886 -73.9094 232° Southwest 433 498 28,000 -350 Level New York Center
Thu 04:53:46 PM 41.0167 -74.0328 232° Southwest 428 493 27,300 -843 Descending New York Center
Thu 04:54:47 PM 40.9444 -74.1500 231° Southwest 428 493 26,300 -639 Descending New York Center
Thu 04:55:48 PM 40.8769 -74.2564 230° Southwest 428 493 26,000 -198 Descending New York Center
Thu 04:56:48 PM 40.8067 -74.3733 232° Southwest 428 493 25,900  Descending New York Center
Thu 04:57:46 PM 40.7386 -74.4875 232° Southwest 423 487 26,000 -356 Climbing New York Center
Thu 04:58:46 PM 40.6683 -74.6014 231° Southwest 417 480 25,200 -893 Descending New York Center
Thu 04:59:47 PM 40.5997 -74.7206 233° Southwest 412 474 24,200 -1,091 Descending New York Center
Thu 05:00:47 PM 40.5186 -74.8361 227° Southwest 412 474 23,000 -1,109 Descending New York Center
Thu 05:01:46 PM 40.4442 -74.9381 226° Southwest 407 468 22,000 -958 Descending New York Center
Thu 05:02:46 PM 40.3717 -75.0425 228° Southwest 400 460 21,100 -942 Descending New York Center
Thu 05:03:47 PM 40.2969 -75.1469 227° Southwest 400 460 20,100 -934 Descending New York Center
Thu 05:04:48 PM 40.2244 -75.2511 228° Southwest 400 460 19,200 -958 Descending New York Center
Thu 05:05:46 PM 40.1475 -75.3547 226° Southwest 400 460 18,200 -605 Descending New York Center
Thu 05:06:47 PM 40.0833 -75.4453 227° Southwest 394 453 18,000 -98 Descending New York Center
Thu 05:07:48 PM 40.0064 -75.5486 226° Southwest 377 434 18,000  Level New York Center
Thu 05:08:47 PM 39.9444 -75.6336 226° Southwest 371 427 18,000  Level New York Center
Thu 05:09:47 PM 39.8794 -75.7456 233° Southwest 362 417 18,000 -545 Level New York Center
Thu 05:10:48 PM 39.8294 -75.8394 235° Southwest 362 417 16,900 -1,964 Descending New York Center
Thu 05:12:35 PM 39.7333 -76.0333 237° Southwest 331 381 12,500 -1,832 Descending Potomac TRACON
Thu 05:13:35 PM 39.6833 -76.1333 237° Southwest 292 336 11,800 -789 Descending Potomac TRACON
Thu 05:14:29 PM 39.6333 -76.2167 232° Southwest 300 345 11,000 -850 Descending Potomac TRACON
Thu 05:15:35 PM 39.6000 -76.3167 247° West 317 365 10,100 -626 Descending Potomac TRACON
Thu 05:16:24 PM 39.5667 -76.3833 237° Southwest 299 344 9,800 -881 Descending Potomac TRACON
Thu 05:17:24 PM 39.5167 -76.4667 232° Southwest 261 300 8,500 -1,500 Descending Potomac TRACON
Thu 05:18:24 PM 39.5000 -76.5500 255° West 253 291 6,800 -1,714 Descending Potomac TRACON
Thu 05:19:30 PM 39.4500 -76.6500 237° Southwest 258 297 4,900 -1,381 Descending Potomac TRACON
Thu 05:20:30 PM 39.4333 -76.7333 256° West 254 292 3,900 -450 Descending Potomac TRACON
Thu 05:21:30 PM 39.3833 -76.8000 226° Southwest 235 270 4,000 50 Climbing Potomac TRACON
Thu 05:22:31 PM 39.3333 -76.8333 207° Southwest 228 262 4,000 -347 Level Potomac TRACON
Thu 05:23:31 PM 39.2833 -76.8167 166° South 208 239 3,300 -800 Descending Potomac TRACON
Thu 05:24:31 PM 39.2333 -76.8000 166° South 176 203 2,400 -1,041 Descending Potomac TRACON
Thu 05:25:32 PM 39.2000 -76.7667 142° Southeast 168 193 1,200 -893 Descending Potomac TRACON
Thu 05:26:32 PM 39.1833 -76.7167 113° Southeast 136 157 600 -600 Descending Potomac TRACON
Thu 05:28:00 PM 39.1667 -76.6667 270° West  Level FlightAware Approximate
Thu 05:35:00 PM 39.1754 -76.6683 270° West  Level Estimated
Thu 05:36:00 PM 39.1754 -76.6683 270° West  Level Estimated
Thu 05:37:00 PM 39.1754 -76.6683 270° West  Level Estimated

Login

Don't have an account? Register now (free) for customized features, flight alerts, and more!